Time;durP1;ratioP1;P1;durP2;ratioP2;P2;SDS_P1;SDS_P2;PMS_P1;PMS_P2;Temp;Humidity;BMP_temperature;BMP_pressure;BME280_temperature;BME280_humidity;BME280_pressure;Samples;Min_cycle;Max_cycle;Signal;HPM_P1;HPM_P2
2021/12/14 00:02:00;;;;;;;18.85;9.82;;;10.00;82.50;;;;;;5089384;28;20069;-83
2021/12/14 00:04:33;;;;;;;23.52;12.98;;;10.00;82.60;;;;;;5096819;28;20056;-83
2021/12/14 00:07:02;;;;;;;26.65;12.05;;;10.00;82.90;;;;;;5096928;28;20020;-83
2021/12/14 00:09:35;;;;;;;24.27;11.48;;;10.00;82.80;;;;;;5088724;28;20021;-83
2021/12/14 00:17:09;;;;;;;18.77;10.30;;;9.90;82.70;;;;;;5076217;28;20051;-83
2021/12/14 00:19:35;;;;;;;18.38;10.07;;;10.00;82.90;;;;;;5076645;28;20043;-83
2021/12/14 00:22:07;;;;;;;18.10;10.65;;;9.90;82.80;;;;;;5076914;28;20074;-83
2021/12/14 00:24:34;;;;;;;18.52;9.90;;;9.90;82.80;;;;;;5076465;28;20033;-83
2021/12/14 00:27:06;;;;;;;19.05;9.68;;;9.80;82.90;;;;;;5074839;28;20044;-83
2021/12/14 00:29:45;;;;;;;16.60;9.15;;;9.70;83.00;;;;;;5065405;28;20046;-83
2021/12/14 00:32:19;;;;;;;18.17;9.07;;;9.70;83.80;;;;;;5077916;28;20032;-84
2021/12/14 00:34:48;;;;;;;13.73;8.23;;;9.60;83.90;;;;;;5100143;28;20118;-84
2021/12/14 00:37:22;;;;;;;19.90;10.23;;;9.60;83.80;;;;;;5116991;28;20034;-83
2021/12/14 00:39:50;;;;;;;18.30;9.20;;;9.50;84.20;;;;;;5116930;28;20043;-84
2021/12/14 00:42:16;;;;;;;18.13;10.63;;;9.50;84.50;;;;;;5113245;28;20293;-84
2021/12/14 00:44:42;;;;;;;22.60;10.75;;;9.50;84.50;;;;;;5076033;28;20032;-83
2021/12/14 00:47:08;;;;;;;22.77;10.93;;;9.70;84.10;;;;;;5058075;28;20201;-84
2021/12/14 00:49:34;;;;;;;23.05;10.30;;;9.70;83.30;;;;;;5075733;28;20057;-83
2021/12/14 00:52:01;;;;;;;19.55;10.65;;;9.70;83.30;;;;;;5076007;28;20111;-83
2021/12/14 00:54:27;;;;;;;24.55;12.23;;;9.70;83.10;;;;;;5074511;28;20024;-84
2021/12/14 00:56:54;;;;;;;20.55;10.48;;;9.70;83.10;;;;;;5075533;28;20532;-84
2021/12/14 00:59:21;;;;;;;20.80;11.27;;;9.70;82.70;;;;;;5076124;28;20073;-84
2021/12/14 01:01:52;;;;;;;19.83;10.05;;;9.70;83.20;;;;;;5071020;28;20024;-84
2021/12/14 01:04:28;;;;;;;20.58;10.13;;;9.70;83.60;;;;;;5095884;28;20127;-84
2021/12/14 01:06:55;;;;;;;19.52;10.15;;;9.70;83.70;;;;;;5086882;28;20025;-84
2021/12/14 01:09:27;;;;;;;25.10;11.18;;;9.60;83.80;;;;;;5074675;28;20025;-84
2021/12/14 01:11:57;;;;;;;22.13;9.52;;;9.60;83.70;;;;;;5076054;28;20383;-84
2021/12/14 01:14:38;;;;;;;25.35;11.88;;;9.60;83.80;;;;;;5075540;28;20494;-84
2021/12/14 01:17:24;;;;;;;18.63;10.45;;;9.70;83.90;;;;;;5074079;28;20390;-84
2021/12/14 01:19:55;;;;;;;20.73;11.32;;;9.70;83.60;;;;;;5075389;28;20107;-84
2021/12/14 01:25:24;;;;;;;22.48;11.45;;;9.80;83.00;;;;;;5075661;28;20158;-84
2021/12/14 01:28:02;;;;;;;20.02;10.32;;;9.70;83.00;;;;;;5075412;28;20024;-84
2021/12/14 01:30:46;;;;;;;22.67;11.63;;;9.70;83.30;;;;;;5075421;28;20173;-84
2021/12/14 01:33:14;;;;;;;23.23;11.63;;;9.80;83.00;;;;;;5075538;28;20016;-84
2021/12/14 01:35:43;;;;;;;21.85;11.52;;;9.80;82.80;;;;;;5087934;28;20032;-83
2021/12/14 01:38:34;;;;;;;22.90;12.07;;;9.80;82.70;;;;;;5086706;28;20410;-84
2021/12/14 01:41:03;;;;;;;;;;;9.90;82.80;;;;;;5074559;28;20040;-84
2021/12/14 01:43:47;;;;;;;18.65;10.10;;;9.90;82.80;;;;;;5075157;28;19971;-84
2021/12/14 01:46:36;;;;;;;21.85;12.27;;;9.90;82.80;;;;;;5075124;28;20020;-84
2021/12/14 01:49:07;;;;;;;22.83;11.43;;;9.90;82.50;;;;;;5075331;28;20037;-84
2021/12/14 01:51:35;;;;;;;21.25;10.95;;;9.90;82.70;;;;;;5075164;28;20028;-84
2021/12/14 01:54:01;;;;;;;23.20;11.32;;;9.90;82.60;;;;;;5075380;28;20024;-83
2021/12/14 01:56:29;;;;;;;21.58;11.43;;;9.90;82.40;;;;;;5074774;28;20027;-84
2021/12/14 01:59:07;;;;;;;23.23;11.80;;;9.90;82.50;;;;;;5074917;28;20016;-83
2021/12/14 02:01:45;;;;;;;20.85;11.50;;;9.90;82.30;;;;;;5074930;28;20025;-83
2021/12/14 02:04:15;;;;;;;20.63;11.13;;;9.90;82.60;;;;;;5056688;28;20087;-84
2021/12/14 02:06:42;;;;;;;;;;;9.90;82.50;;;;;;5074027;28;20020;-84
2021/12/14 02:09:12;;;;;;;21.35;10.57;;;9.90;82.10;;;;;;5075100;28;19912;-83
2021/12/14 02:11:49;;;;;;;22.67;10.70;;;9.90;82.30;;;;;;5074686;28;20541;-84
2021/12/14 02:14:16;;;;;;;24.42;12.05;;;10.00;82.20;;;;;;5056524;28;20036;-84
2021/12/14 02:16:47;;;;;;;22.27;11.82;;;10.00;82.20;;;;;;5074936;28;20517;-83
2021/12/14 02:19:15;;;;;;;25.33;11.88;;;9.90;82.10;;;;;;5074801;28;20025;-84
2021/12/14 02:21:47;;;;;;;24.05;10.77;;;9.90;81.80;;;;;;5077397;28;20037;-84
2021/12/14 02:24:14;;;;;;;20.88;10.65;;;9.90;81.90;;;;;;5080539;28;20021;-84
2021/12/14 02:26:43;;;;;;;23.52;11.85;;;9.90;82.10;;;;;;5082482;28;20063;-84
2021/12/14 02:29:18;;;;;;;20.25;10.82;;;9.90;82.00;;;;;;5061112;28;20029;-84
2021/12/14 02:31:45;;;;;;;21.13;11.20;;;9.90;82.00;;;;;;5078833;28;20151;-84
2021/12/14 02:34:11;;;;;;;23.55;11.50;;;9.90;81.90;;;;;;5084643;28;20016;-84
2021/12/14 02:36:43;;;;;;;25.50;11.88;;;9.90;82.00;;;;;;5095850;28;20393;-84
2021/12/14 02:39:24;;;;;;;22.52;11.40;;;9.90;82.00;;;;;;5080475;28;20020;-84
2021/12/14 02:41:55;;;;;;;20.52;10.40;;;9.90;82.00;;;;;;5098642;28;20024;-84
2021/12/14 02:44:21;;;;;;;21.90;11.63;;;9.90;82.10;;;;;;5098649;28;20055;-83
2021/12/14 02:46:51;;;;;;;26.05;11.40;;;10.00;81.90;;;;;;5085017;28;20035;-84
2021/12/14 02:49:21;;;;;;;25.27;11.55;;;9.90;81.80;;;;;;5078970;28;20025;-84
2021/12/14 02:51:51;;;;;;;24.15;12.43;;;9.90;82.00;;;;;;5078424;28;20104;-83
2021/12/14 02:54:38;;;;;;;25.88;12.93;;;9.90;81.80;;;;;;5078017;28;20044;-84
2021/12/14 02:57:17;;;;;;;25.48;11.38;;;9.90;81.80;;;;;;5076302;28;20092;-83
2021/12/14 02:59:45;;;;;;;24.52;11.57;;;9.80;81.80;;;;;;5078587;28;20450;-85
2021/12/14 03:02:18;;;;;;;24.40;11.82;;;9.90;82.00;;;;;;5078101;28;20024;-84
2021/12/14 03:04:55;;;;;;;26.27;12.43;;;9.90;82.00;;;;;;5078426;28;20055;-84
2021/12/14 03:07:25;;;;;;;21.52;11.48;;;9.80;81.80;;;;;;5077996;28;20094;-84
2021/12/14 03:10:05;;;;;;;25.25;11.57;;;9.80;81.90;;;;;;5077481;28;20032;-84
2021/12/14 03:12:35;;;;;;;;;;;9.80;81.90;;;;;;5078726;28;20064;-83
2021/12/14 03:15:24;;;;;;;26.52;12.43;;;9.80;81.70;;;;;;5077877;28;20018;-84
2021/12/14 03:17:52;;;;;;;25.60;11.15;;;9.80;81.70;;;;;;5077805;28;20490;-84
2021/12/14 03:20:34;;;;;;;21.73;12.20;;;9.80;81.80;;;;;;5078147;28;20394;-84
2021/12/14 03:23:07;;;;;;;22.38;11.35;;;9.70;81.90;;;;;;5077846;28;20031;-84
2021/12/14 03:25:36;;;;;;;26.38;12.07;;;9.80;82.20;;;;;;5077822;28;20035;-84
2021/12/14 03:28:02;;;;;;;24.90;12.52;;;9.80;82.10;;;;;;5077969;28;20480;-84
2021/12/14 03:30:43;;;;;;;25.85;12.30;;;9.80;82.20;;;;;;5077671;28;20029;-84
2021/12/14 03:33:18;;;;;;;26.60;12.20;;;9.80;82.10;;;;;;5077040;28;20108;-84
2021/12/14 03:35:51;;;;;;;28.02;13.00;;;9.80;81.90;;;;;;5080348;28;20064;-84
2021/12/14 03:38:23;;;;;;;26.77;12.57;;;9.80;82.00;;;;;;5077474;28;20016;-83
2021/12/14 03:41:00;;;;;;;30.65;12.88;;;9.80;82.00;;;;;;5059311;28;20025;-84
2021/12/14 03:43:27;;;;;;;25.45;13.45;;;9.80;82.40;;;;;;5077640;28;20028;-84
2021/12/14 03:45:53;;;;;;;28.83;13.40;;;9.80;82.30;;;;;;5077453;28;20457;-85
2021/12/14 03:48:24;;;;;;;26.55;12.00;;;9.80;82.10;;;;;;5075841;28;20116;-84
2021/12/14 03:50:50;;;;;;;27.08;12.05;;;9.80;82.20;;;;;;5077273;28;20036;-84
2021/12/14 03:53:20;;;;;;;24.85;12.68;;;9.80;82.00;;;;;;5077301;28;20056;-84
2021/12/14 03:55:50;;;;;;;23.85;11.80;;;9.80;82.10;;;;;;5077159;28;20037;-84
2021/12/14 03:58:30;;;;;;;24.35;11.65;;;9.80;82.10;;;;;;5059048;28;20028;-84
2021/12/14 04:01:14;;;;;;;25.52;11.85;;;9.80;82.20;;;;;;5075813;28;20024;-84
2021/12/14 04:03:41;;;;;;;24.80;13.23;;;9.80;82.20;;;;;;5077179;28;20017;-84
2021/12/14 04:06:08;;;;;;;25.83;11.80;;;9.80;82.10;;;;;;5076774;28;20052;-84
2021/12/14 04:08:34;;;;;;;29.77;13.50;;;9.80;82.10;;;;;;5076936;28;20028;-83
2021/12/14 04:11:04;;;;;;;27.58;12.88;;;9.80;82.00;;;;;;5077062;28;20035;-84
2021/12/14 04:13:35;;;;;;;20.13;10.63;;;9.80;81.80;;;;;;5076764;28;20036;-84
2021/12/14 04:16:01;;;;;;;23.58;11.20;;;9.80;82.00;;;;;;5076831;28;20432;-83
2021/12/14 04:18:30;;;;;;;25.73;12.93;;;9.80;82.00;;;;;;5077067;28;20024;-84
2021/12/14 04:21:00;;;;;;;25.55;12.90;;;9.80;82.30;;;;;;5076731;28;20078;-84
2021/12/14 04:23:30;;;;;;;23.58;12.52;;;9.80;82.20;;;;;;5076623;28;20024;-84
2021/12/14 04:25:58;;;;;;;22.77;11.93;;;9.80;82.20;;;;;;5076156;28;20070;-84
2021/12/14 04:28:29;;;;;;;23.10;10.73;;;9.80;82.20;;;;;;5096439;28;20059;-84
2021/12/14 04:30:55;;;;;;;23.90;11.07;;;9.90;81.90;;;;;;5096719;28;20462;-84
2021/12/14 04:33:31;;;;;;;26.45;11.90;;;9.80;82.20;;;;;;5081978;28;20144;-83
2021/12/14 04:35:58;;;;;;;26.27;12.10;;;9.80;82.00;;;;;;5111075;28;20027;-84
2021/12/14 04:38:30;;;;;;;23.10;11.20;;;9.80;82.00;;;;;;5076451;28;20017;-83
2021/12/14 04:52:12;;;;;;;22.67;11.95;;;9.60;82.50;;;;;;5076531;28;20055;-83
2021/12/14 04:55:00;;;;;;;23.02;11.75;;;9.60;82.50;;;;;;5075921;28;20413;-84
2021/12/14 04:57:31;;;;;;;22.60;11.32;;;9.70;82.40;;;;;;5057519;28;20092;-84
2021/12/14 05:00:20;;;;;;;22.75;10.13;;;9.70;82.20;;;;;;5076278;28;20099;-84
2021/12/14 05:02:47;;;;;;;20.90;10.82;;;9.70;82.30;;;;;;5078300;28;20017;-84
2021/12/14 05:05:21;;;;;;;20.92;9.68;;;9.70;82.20;;;;;;5087001;28;20069;-83
2021/12/14 05:09:20;;;;;;;22.60;9.52;;;9.70;82.10;;;;;;5096024;28;20028;-83
2021/12/14 05:10:45;;;;;;;25.20;11.30;;;9.70;82.10;;;;;;5075527;28;20041;-84
2021/12/14 05:13:11;;;;;;;22.23;10.75;;;9.60;82.20;;;;;;5075302;28;20039;-83
2021/12/14 05:15:39;;;;;;;19.77;10.10;;;9.60;82.00;;;;;;5078080;28;20028;-85
2021/12/14 05:18:10;;;;;;;15.57;7.93;;;9.60;82.10;;;;;;5075556;28;20028;-83
2021/12/14 05:20:39;;;;;;;21.40;9.40;;;9.60;82.10;;;;;;5074228;28;20577;-85
2021/12/14 05:23:05;;;;;;;17.05;10.10;;;9.60;82.10;;;;;;5074272;28;20043;-82
2021/12/14 05:25:31;;;;;;;18.13;9.27;;;9.60;82.00;;;;;;5075660;28;20036;-82
2021/12/14 05:27:59;;;;;;;18.65;9.43;;;9.60;82.20;;;;;;5075303;28;20032;-82
2021/12/14 05:30:32;;;;;;;19.63;8.27;;;9.60;82.20;;;;;;5075090;28;20029;-82
2021/12/14 05:33:05;;;;;;;18.70;9.90;;;9.60;82.00;;;;;;5075486;28;20347;-81
2021/12/14 05:35:32;;;;;;;19.95;9.40;;;9.50;82.40;;;;;;5103691;28;20020;-81
2021/12/14 05:38:07;;;;;;;19.58;9.52;;;9.50;82.80;;;;;;5115930;28;20388;-81
2021/12/14 05:43:14;;;;;;;19.58;9.13;;;9.30;83.30;;;;;;5074671;28;20034;-80
2021/12/14 05:45:51;;;;;;;18.48;8.93;;;9.30;83.60;;;;;;5074853;28;20021;-85
2021/12/14 06:18:31;;;;;;;22.70;10.75;;;7.90;88.20;;;;;;5067008;28;20398;-80
2021/12/14 06:20:57;;;;;;;18.15;7.97;;;8.00;87.90;;;;;;5070798;28;20055;-82
2021/12/14 06:23:35;;;;;;;14.40;8.18;;;8.20;87.60;;;;;;5069559;28;20620;-84
2021/12/14 06:26:00;;;;;;;15.55;9.10;;;8.50;86.90;;;;;;5065627;28;20115;-76
2021/12/14 06:28:28;;;;;;;16.35;8.20;;;8.70;86.10;;;;;;5067813;28;20060;-81
2021/12/14 06:30:57;;;;;;;18.75;9.18;;;8.80;85.70;;;;;;5066681;28;20028;-82
2021/12/14 06:33:27;;;;;;;22.67;10.30;;;9.00;85.20;;;;;;5064649;28;20032;-81
2021/12/14 06:35:54;;;;;;;27.60;11.43;;;9.10;84.50;;;;;;5060682;28;20021;-82
2021/12/14 06:38:34;;;;;;;27.00;10.55;;;9.20;84.50;;;;;;5063199;28;20029;-82
2021/12/14 06:41:06;;;;;;;20.90;9.70;;;9.10;84.20;;;;;;5071227;28;20025;-82
2021/12/14 06:43:43;;;;;;;24.55;10.95;;;9.20;84.00;;;;;;5071376;28;20033;-82
2021/12/14 06:46:31;;;;;;;21.58;10.57;;;9.30;83.80;;;;;;5065986;28;20013;-82
2021/12/14 06:49:04;;;;;;;18.58;9.40;;;9.20;83.70;;;;;;5051605;28;20052;-82
2021/12/14 06:51:37;;;;;;;20.85;9.68;;;9.20;83.90;;;;;;5052231;28;20040;-82
2021/12/14 06:54:07;;;;;;;25.45;11.07;;;9.20;83.80;;;;;;5068186;28;20029;-82
2021/12/14 06:56:35;;;;;;;22.58;11.45;;;9.30;83.80;;;;;;5071591;28;20096;-83
2021/12/14 06:59:13;;;;;;;26.98;11.65;;;9.20;84.00;;;;;;5071093;28;20017;-82
2021/12/14 07:01:47;;;;;;;25.88;11.90;;;9.10;84.10;;;;;;5069999;28;20071;-87
2021/12/14 07:04:21;;;;;;;23.67;11.13;;;9.10;84.20;;;;;;5057249;28;20105;-82
2021/12/14 07:06:56;;;;;;;22.75;11.30;;;9.20;84.30;;;;;;5083407;28;20093;-76
2021/12/14 07:09:33;;;;;;;25.50;10.20;;;9.20;84.10;;;;;;5065524;28;20055;-79
2021/12/14 07:12:01;;;;;;;24.52;11.10;;;9.20;83.80;;;;;;5049729;28;20055;-79
2021/12/14 07:14:26;;;;;;;25.85;11.52;;;9.20;84.20;;;;;;5053247;28;20499;-77
2021/12/14 07:16:56;;;;;;;21.75;10.25;;;9.10;84.30;;;;;;5069779;28;20056;-80
2021/12/14 07:19:45;;;;;;;19.42;9.95;;;9.20;84.30;;;;;;5069871;28;20020;-80
2021/12/14 07:22:37;;;;;;;17.67;9.35;;;9.20;84.00;;;;;;5064924;28;20114;-80
2021/12/14 07:25:24;;;;;;;25.25;10.90;;;9.20;84.00;;;;;;5067637;28;20025;-79
2021/12/14 07:27:59;;;;;;;24.40;11.10;;;9.20;84.00;;;;;;5066083;28;20047;-77
2021/12/14 07:30:35;;;;;;;29.80;12.15;;;9.20;84.00;;;;;;5057562;28;20100;-79
2021/12/14 07:33:14;;;;;;;25.77;12.52;;;9.10;84.20;;;;;;5051305;28;20048;-79
2021/12/14 07:35:48;;;;;;;27.55;11.98;;;9.10;84.30;;;;;;5067781;28;20023;-78
2021/12/14 07:38:24;;;;;;;21.80;11.13;;;9.20;84.40;;;;;;5076154;28;20040;-79
2021/12/14 07:41:18;;;;;;;28.55;11.27;;;9.20;84.20;;;;;;5069086;28;20026;-79
2021/12/14 07:43:49;;;;;;;27.42;12.48;;;9.20;84.10;;;;;;5047098;28;20812;-77
2021/12/14 07:46:21;;;;;;;29.88;13.45;;;9.20;84.00;;;;;;5057310;28;20033;-77
2021/12/14 07:49:00;;;;;;;25.70;12.05;;;9.30;84.10;;;;;;5057278;28;20056;-77
2021/12/14 07:51:28;;;;;;;24.80;10.88;;;9.30;84.00;;;;;;5055513;28;20402;-79
2021/12/14 07:54:01;;;;;;;21.77;9.65;;;9.30;83.80;;;;;;5057192;28;20033;-77
2021/12/14 07:56:40;;;;;;;24.52;10.85;;;9.20;83.70;;;;;;5048347;28;20033;-79
2021/12/14 07:59:27;;;;;;;24.80;11.18;;;9.20;84.10;;;;;;5037139;28;20372;-79
2021/12/14 08:02:21;;;;;;;21.90;10.45;;;9.20;84.20;;;;;;5037177;28;20029;-77
2021/12/14 08:04:57;;;;;;;25.13;11.13;;;9.10;84.20;;;;;;5037076;28;20037;-77
2021/12/14 08:07:28;;;;;;;25.00;11.43;;;9.20;84.20;;;;;;5035518;28;20033;-79
2021/12/14 08:10:05;;;;;;;25.33;10.52;;;9.10;84.30;;;;;;5036414;28;20021;-79
2021/12/14 08:12:34;;;;;;;19.48;9.38;;;9.20;84.40;;;;;;5036846;28;20032;-77
2021/12/14 08:15:03;;;;;;;16.83;8.88;;;9.10;84.10;;;;;;5036783;28;20022;-77
2021/12/14 08:17:29;;;;;;;18.83;8.80;;;9.00;83.80;;;;;;5036558;28;20057;-78
2021/12/14 08:19:55;;;;;;;23.48;10.10;;;9.00;84.30;;;;;;5046690;28;20828;-77
2021/12/14 08:22:33;;;;;;;25.73;9.73;;;9.00;84.10;;;;;;5056600;28;20029;-79
2021/12/14 08:24:59;;;;;;;20.98;9.82;;;9.10;83.90;;;;;;5056696;28;20028;-80
2021/12/14 08:27:30;;;;;;;21.42;9.20;;;9.20;83.90;;;;;;5053906;28;20060;-77
2021/12/14 08:30:01;;;;;;;21.05;9.15;;;9.20;83.80;;;;;;5056280;28;20079;-77
2021/12/14 08:32:38;;;;;;;22.17;10.38;;;9.30;83.70;;;;;;5056673;28;20083;-77
2021/12/14 08:35:08;;;;;;;21.50;9.98;;;9.30;83.80;;;;;;5066660;28;20419;-79
2021/12/14 08:37:43;;;;;;;22.83;10.45;;;9.30;83.30;;;;;;5038540;28;20036;-77
2021/12/14 08:40:16;;;;;;;17.58;8.77;;;9.40;83.40;;;;;;5035432;28;20105;-79
2021/12/14 08:43:08;;;;;;;25.95;11.40;;;9.30;83.30;;;;;;5035543;28;20029;-79
2021/12/14 08:45:59;;;;;;;19.58;8.73;;;9.40;83.40;;;;;;5054899;28;20036;-79
2021/12/14 08:48:31;;;;;;;20.45;9.18;;;9.20;83.20;;;;;;5055750;28;20029;-79
2021/12/14 08:51:02;;;;;;;17.35;9.00;;;9.20;83.40;;;;;;5036366;28;20025;-79
2021/12/14 08:53:32;;;;;;;19.83;8.55;;;9.20;83.80;;;;;;5034543;28;20037;-77
2021/12/14 08:56:02;;;;;;;20.67;10.02;;;9.20;83.80;;;;;;5036226;28;20013;-79
2021/12/14 08:58:29;;;;;;;27.05;13.90;;;9.20;84.10;;;;;;5036003;28;20056;-79
2021/12/14 09:00:59;;;;;;;20.10;9.52;;;9.30;83.70;;;;;;5036098;28;20088;-79
2021/12/14 09:03:33;;;;;;;;;;;9.40;83.20;;;;;;5047744;28;20104;-80
2021/12/14 09:06:04;;;;;;;14.05;6.90;;;9.30;82.90;;;;;;5055672;28;19928;-77
2021/12/14 09:08:30;;;;;;;16.98;7.78;;;9.40;83.00;;;;;;5051648;28;20029;-79
2021/12/14 09:10:57;;;;;;;16.08;8.25;;;9.30;82.90;;;;;;5035652;28;20025;-80
2021/12/14 09:13:25;;;;;;;18.83;9.23;;;9.40;83.20;;;;;;5035707;28;20499;-78
2021/12/14 09:15:56;;;;;;;27.77;12.05;;;9.50;83.00;;;;;;5035406;28;20017;-79
2021/12/14 09:18:24;;;;;;;25.77;12.13;;;9.50;83.00;;;;;;5035803;28;20045;-77
2021/12/14 09:20:58;;;;;;;25.60;12.43;;;9.50;82.90;;;;;;5035638;28;20037;-78
2021/12/14 09:23:28;;;;;;;21.85;10.05;;;9.60;82.80;;;;;;5035402;28;20484;-78
2021/12/14 09:25:55;;;;;;;20.45;9.70;;;9.60;82.60;;;;;;5034798;28;20048;-79
2021/12/14 09:28:21;;;;;;;14.85;7.32;;;9.50;82.60;;;;;;5037827;28;20041;-79
2021/12/14 09:30:58;;;;;;;15.13;7.35;;;9.50;82.10;;;;;;5055574;28;20388;-79
2021/12/14 09:33:25;;;;;;;12.05;7.25;;;9.40;82.70;;;;;;5055343;28;20025;-79
2021/12/14 09:35:54;;;;;;;15.35;7.57;;;9.30;82.70;;;;;;5071987;28;20700;-79
2021/12/14 09:38:25;;;;;;;19.20;8.48;;;9.20;82.70;;;;;;5046555;28;20034;-79
2021/12/14 09:40:55;;;;;;;21.48;9.27;;;9.30;83.30;;;;;;5035151;28;20065;-80
2021/12/14 09:43:21;;;;;;;16.85;8.05;;;9.30;82.80;;;;;;5041095;28;20048;-79
2021/12/14 09:45:52;;;;;;;20.42;7.57;;;9.40;82.60;;;;;;5049472;28;20440;-79
2021/12/14 09:48:39;;;;;;;12.20;5.65;;;9.40;82.70;;;;;;5035106;28;20037;-80
2021/12/14 09:51:10;;;;;;;13.27;6.50;;;9.40;82.60;;;;;;5035051;28;20017;-79
2021/12/14 09:53:41;;;;;;;16.52;6.68;;;9.40;82.60;;;;;;5034962;28;20383;-80
2021/12/14 09:56:07;;;;;;;13.05;6.50;;;9.50;82.50;;;;;;5034984;28;20049;-79
2021/12/14 09:58:38;;;;;;;16.60;8.18;;;9.40;82.40;;;;;;5034932;28;20013;-79
2021/12/14 10:01:29;;;;;;;31.15;13.48;;;9.40;82.80;;;;;;5034778;28;20018;-79
2021/12/14 10:04:00;;;;;;;25.80;10.63;;;9.50;82.20;;;;;;5031886;28;20029;-79
2021/12/14 10:06:31;;;;;;;22.73;9.93;;;9.50;82.50;;;;;;5035101;28;20029;-79
2021/12/14 10:09:04;;;;;;;21.13;9.13;;;9.60;82.50;;;;;;5034804;28;20083;-79
2021/12/14 10:14:23;;;;;;;18.08;8.13;;;9.70;82.50;;;;;;5034906;28;20025;-79
2021/12/14 10:16:49;;;;;;;16.00;7.95;;;9.70;82.50;;;;;;5034708;28;20415;-79
2021/12/14 10:19:19;;;;;;;20.23;9.25;;;9.70;82.10;;;;;;5034725;28;20503;-79
2021/12/14 10:21:58;;;;;;;18.75;8.55;;;9.50;82.80;;;;;;5034583;28;20128;-79
2021/12/14 10:24:24;;;;;;;19.90;8.73;;;9.60;82.60;;;;;;5034632;28;20053;-79
2021/12/14 10:27:08;;;;;;;25.58;10.77;;;9.50;82.60;;;;;;5034529;28;20037;-79
2021/12/14 10:29:34;;;;;;;20.25;8.18;;;9.70;83.10;;;;;;5034557;28;20018;-79
2021/12/14 10:32:07;;;;;;;22.27;9.13;;;9.70;82.20;;;;;;5035083;28;20394;-80
2021/12/14 10:34:39;;;;;;;27.40;13.57;;;9.80;82.70;;;;;;5045203;28;20398;-79
2021/12/14 10:37:18;;;;;;;32.80;14.57;;;9.80;82.40;;;;;;5060841;28;20439;-79
2021/12/14 10:45:25;;;;;;;21.27;9.32;;;9.80;81.80;;;;;;5041081;28;20079;-79
2021/12/14 10:47:51;;;;;;;27.63;11.77;;;9.80;81.90;;;;;;5044931;28;20029;-80
2021/12/14 10:50:22;;;;;;;27.67;12.90;;;9.90;82.10;;;;;;5043256;28;20071;-80
2021/12/14 10:52:48;;;;;;;26.15;12.48;;;10.00;82.00;;;;;;5034800;28;20104;-77
2021/12/14 10:55:38;;;;;;;19.42;8.50;;;9.80;82.00;;;;;;5034644;28;20025;-79
2021/12/14 10:58:05;;;;;;;42.95;22.25;;;9.90;82.60;;;;;;5046231;28;20121;-77
2021/12/14 11:00:50;;;;;;;20.42;10.15;;;10.00;81.90;;;;;;5043329;28;20025;-77
2021/12/14 11:03:20;;;;;;;19.00;9.00;;;10.10;82.00;;;;;;5049391;28;20093;-80
2021/12/14 11:05:52;;;;;;;19.92;9.60;;;10.00;81.40;;;;;;5049386;28;20032;-77
2021/12/14 11:08:34;;;;;;;24.90;10.45;;;10.00;81.80;;;;;;5054800;28;20039;-78
2021/12/14 11:11:04;;;;;;;21.17;9.85;;;10.10;81.80;;;;;;5049411;28;20021;-80
2021/12/14 11:13:52;;;;;;;24.52;10.88;;;10.00;81.50;;;;;;5045291;28;20073;-81
2021/12/14 11:19:39;;;;;;;26.15;10.02;;;10.20;82.10;;;;;;5046009;28;20044;-80
2021/12/14 11:22:18;;;;;;;21.58;7.90;;;10.20;81.90;;;;;;5048145;28;20017;-82
2021/12/14 11:24:49;;;;;;;23.55;8.70;;;10.10;81.80;;;;;;5052886;28;20025;-82
2021/12/14 11:27:25;;;;;;;24.90;9.55;;;10.00;81.60;;;;;;5049244;28;20514;-79
2021/12/14 11:30:09;;;;;;;20.45;8.02;;;10.00;82.20;;;;;;5053570;28;20033;-81
2021/12/14 11:32:35;;;;;;;18.75;7.97;;;10.00;81.80;;;;;;5047051;28;20021;-80
2021/12/14 11:35:03;;;;;;;22.10;8.48;;;10.20;81.80;;;;;;5047943;28;20120;-78
2021/12/14 11:37:34;;;;;;;16.17;7.95;;;10.10;81.70;;;;;;5045469;28;20109;-78
2021/12/14 11:40:01;;;;;;;18.35;8.65;;;10.30;81.50;;;;;;5049676;28;20052;-78
2021/12/14 11:42:28;;;;;;;18.90;7.82;;;10.30;81.20;;;;;;5045636;28;20039;-79
2021/12/14 11:44:58;;;;;;;20.60;7.57;;;10.30;80.70;;;;;;5044625;28;20052;-78
2021/12/14 11:50:24;;;;;;;17.90;7.90;;;10.20;81.50;;;;;;5050681;28;20101;-78
2021/12/14 11:53:02;;;;;;;22.45;8.88;;;10.10;81.60;;;;;;5037330;28;20032;-78
2021/12/14 11:55:54;;;;;;;18.00;8.55;;;10.20;81.70;;;;;;5055102;28;20029;-79
2021/12/14 11:58:33;;;;;;;15.70;7.05;;;10.20;81.40;;;;;;5050997;28;20028;-78
2021/12/14 12:01:24;;;;;;;19.60;6.90;;;10.00;81.60;;;;;;5056093;28;20025;-79
2021/12/14 12:03:58;;;;;;;17.85;7.72;;;10.10;81.70;;;;;;5053338;28;20514;-78
2021/12/14 12:11:48;;;;;;;17.35;7.50;;;10.40;81.10;;;;;;5053808;28;20020;-78
2021/12/14 12:14:29;;;;;;;19.25;7.95;;;10.40;80.70;;;;;;5055626;28;20025;-78
2021/12/14 12:17:09;;;;;;;16.45;6.53;;;10.40;80.50;;;;;;5053392;28;20454;-78
2021/12/14 12:19:36;;;;;;;17.60;8.38;;;10.40;80.40;;;;;;5053816;28;20077;-79
2021/12/14 12:22:15;;;;;;;19.52;9.10;;;10.30;80.40;;;;;;5052060;28;20029;-79
2021/12/14 12:24:44;;;;;;;16.73;7.97;;;10.30;80.80;;;;;;5052603;28;20502;-83
2021/12/14 12:27:36;;;;;;;23.35;8.95;;;10.30;80.30;;;;;;5052014;28;20029;-79
2021/12/14 12:30:33;;;;;;;18.20;8.68;;;10.30;80.40;;;;;;5052397;28;20017;-78
2021/12/14 12:33:30;;;;;;;19.83;8.07;;;10.50;80.50;;;;;;5051384;28;20052;-79
2021/12/14 12:36:05;;;;;;;14.88;6.15;;;10.60;80.20;;;;;;5063996;28;20017;-79
2021/12/14 12:39:03;;;;;;;23.40;9.10;;;10.50;80.50;;;;;;5036243;28;20064;-78
2021/12/14 12:41:49;;;;;;;16.60;7.57;;;10.50;80.90;;;;;;5045784;28;20040;-79
2021/12/14 12:44:26;;;;;;;16.85;7.47;;;10.70;80.30;;;;;;5041448;28;20025;-79
2021/12/14 12:46:56;;;;;;;15.25;6.78;;;10.70;79.80;;;;;;5041538;28;20032;-79
2021/12/14 12:49:25;;;;;;;15.75;5.97;;;10.60;80.00;;;;;;5054533;28;20028;-79
2021/12/14 12:52:27;;;;;;;13.70;6.32;;;10.80;80.00;;;;;;5044976;28;20033;-79
2021/12/14 12:55:28;;;;;;;16.25;6.75;;;10.90;79.70;;;;;;5053142;28;20075;-78
2021/12/14 12:58:12;;;;;;;14.05;5.75;;;11.10;79.30;;;;;;5050361;28;20029;-79
2021/12/14 13:00:52;;;;;;;11.52;6.07;;;11.00;79.00;;;;;;5055282;28;20037;-78
2021/12/14 13:03:20;;;;;;;10.10;5.03;;;11.20;78.60;;;;;;5053954;28;20112;-79
2021/12/14 13:06:10;;;;;;;10.73;5.93;;;11.20;78.00;;;;;;5054774;28;20160;-78
2021/12/14 13:08:39;;;;;;;13.18;7.22;;;11.20;78.00;;;;;;5036080;28;20030;-79
2021/12/14 13:11:33;;;;;;;14.63;7.37;;;11.00;78.70;;;;;;5048767;28;20037;-79
2021/12/14 13:14:03;;;;;;;12.35;6.65;;;11.00;78.80;;;;;;5055361;28;20021;-79
2021/12/14 13:16:32;;;;;;;14.57;7.10;;;11.00;78.70;;;;;;5053324;28;20032;-79
2021/12/14 13:19:03;;;;;;;14.10;7.05;;;11.20;78.90;;;;;;5055512;28;20032;-79
2021/12/14 13:21:35;;;;;;;19.75;7.18;;;11.10;78.50;;;;;;5055125;28;20381;-79
2021/12/14 13:24:04;;;;;;;14.70;7.18;;;11.10;78.80;;;;;;5042778;28;20064;-78
2021/12/14 13:26:35;;;;;;;16.05;6.88;;;11.20;78.80;;;;;;5033957;28;20408;-79
2021/12/14 13:29:21;;;;;;;14.45;6.60;;;11.20;78.70;;;;;;5035176;28;20107;-79
2021/12/14 13:31:55;;;;;;;20.48;7.05;;;11.20;79.00;;;;;;5035062;28;20033;-79
2021/12/14 13:34:35;;;;;;;13.68;6.55;;;11.30;78.60;;;;;;5043923;28;20033;-79
2021/12/14 13:37:03;;;;;;;16.42;7.40;;;11.20;78.20;;;;;;5074685;28;20016;-79
2021/12/14 13:39:30;;;;;;;16.40;7.30;;;11.10;79.10;;;;;;5071570;28;20055;-79
2021/12/14 13:41:59;;;;;;;14.70;7.00;;;11.20;79.10;;;;;;5034907;28;20483;-79
2021/12/14 13:44:26;;;;;;;16.35;7.63;;;11.40;78.70;;;;;;5049604;28;20083;-79
2021/12/14 13:46:53;;;;;;;18.80;8.57;;;11.40;78.40;;;;;;5047152;28;20044;-79
2021/12/14 13:49:19;;;;;;;16.33;8.05;;;11.40;78.20;;;;;;5034828;28;20028;-79
2021/12/14 13:51:45;;;;;;;21.00;10.00;;;11.50;78.50;;;;;;5052228;28;20017;-78
2021/12/14 13:54:11;;;;;;;18.63;8.10;;;11.40;77.90;;;;;;5058098;28;20030;-79
2021/12/14 13:56:39;;;;;;;22.65;10.35;;;11.40;78.30;;;;;;5032643;28;20467;-79
2021/12/14 13:59:07;;;;;;;19.35;10.43;;;11.50;78.50;;;;;;5034678;28;20101;-79
2021/12/14 14:01:41;;;;;;;17.80;10.48;;;11.50;78.20;;;;;;5034701;28;20026;-79
2021/12/14 14:04:10;;;;;;;21.35;10.68;;;11.50;78.30;;;;;;5034760;28;20044;-79
2021/12/14 14:06:38;;;;;;;23.15;10.80;;;11.50;78.40;;;;;;5034549;28;20104;-79
2021/12/14 14:09:08;;;;;;;18.73;9.93;;;11.40;78.40;;;;;;5066466;28;20026;-78
2021/12/14 14:11:44;;;;;;;19.73;10.25;;;11.30;78.60;;;;;;5033420;28;20112;-79
2021/12/14 14:14:22;;;;;;;20.33;10.77;;;11.30;79.00;;;;;;5066368;28;20053;-79
2021/12/14 14:16:52;;;;;;;13.70;7.07;;;11.30;78.60;;;;;;5034255;28;20104;-79
2021/12/14 14:19:31;;;;;;;;;;;11.30;78.60;;;;;;5034753;28;20483;-79
2021/12/14 14:22:02;;;;;;;15.55;5.85;;;11.20;78.60;;;;;;5034547;28;19909;-79
2021/12/14 14:24:33;;;;;;;9.52;5.95;;;11.20;79.20;;;;;;5050349;28;20029;-79